createdAt,value
2018-12-16T00:02:09.285Z,-1.20
2018-12-16T00:04:35.601Z,-1.20
2018-12-16T00:07:01.801Z,-1.20
2018-12-16T00:09:28.112Z,-1.20
2018-12-16T00:11:54.326Z,-1.20
2018-12-16T00:14:20.677Z,-1.30
2018-12-16T00:16:46.993Z,-1.30
2018-12-16T00:19:13.328Z,-1.30
2018-12-16T00:21:39.642Z,-1.30
2018-12-16T00:24:05.816Z,-1.30
2018-12-16T00:26:44.395Z,-1.30
2018-12-16T00:29:10.621Z,-1.30
2018-12-16T00:31:37.060Z,-1.40
2018-12-16T00:34:03.218Z,-1.40
2018-12-16T00:36:29.400Z,-1.40
2018-12-16T00:38:55.623Z,-1.40
2018-12-16T00:41:21.831Z,-1.40
2018-12-16T00:43:48.025Z,-1.50
2018-12-16T00:46:14.274Z,-1.50
2018-12-16T00:48:40.515Z,-1.50
2018-12-16T00:51:06.719Z,-1.50
2018-12-16T00:53:32.904Z,-1.60
2018-12-16T00:55:59.026Z,-1.70
2018-12-16T00:58:25.194Z,-1.70
2018-12-16T01:00:51.372Z,-1.70
2018-12-16T01:03:17.576Z,-1.80
2018-12-16T01:05:43.768Z,-1.80
2018-12-16T01:08:09.923Z,-1.90
2018-12-16T01:10:36.144Z,-2.00
2018-12-16T01:13:02.548Z,-2.00
2018-12-16T01:15:28.674Z,-2.00
2018-12-16T01:17:54.988Z,-2.00
2018-12-16T01:20:21.340Z,-1.90
2018-12-16T01:22:47.520Z,-2.00
2018-12-16T01:25:13.779Z,-2.00
2018-12-16T01:27:39.981Z,-1.90
2018-12-16T01:30:06.323Z,-2.00
2018-12-16T01:32:32.414Z,-2.00
2018-12-16T01:34:58.598Z,-2.00
2018-12-16T01:37:24.787Z,-2.00
2018-12-16T01:39:50.928Z,-1.90
2018-12-16T01:42:17.107Z,-2.00
2018-12-16T01:44:43.271Z,-2.10
2018-12-16T01:47:09.375Z,-2.10
2018-12-16T01:49:42.581Z,-2.10
2018-12-16T01:52:08.765Z,-2.20
2018-12-16T01:54:34.879Z,-2.30
2018-12-16T01:57:01.066Z,-2.20
2018-12-16T01:59:27.216Z,-2.20
2018-12-16T02:01:54.468Z,-2.20
2018-12-16T02:04:20.889Z,-2.10
2018-12-16T02:06:47.039Z,-2.20
2018-12-16T02:09:13.191Z,-2.10
2018-12-16T02:11:39.369Z,-2.10
2018-12-16T02:14:05.511Z,-2.10
2018-12-16T02:16:31.710Z,-2.00
2018-12-16T02:18:57.880Z,-2.00
2018-12-16T02:21:24.083Z,-2.10
2018-12-16T02:23:50.289Z,-2.10
2018-12-16T02:26:16.545Z,-2.10
2018-12-16T02:28:42.689Z,-2.20
2018-12-16T02:31:08.872Z,-2.10
2018-12-16T02:33:35.274Z,-2.10
2018-12-16T02:36:01.423Z,-2.10
2018-12-16T02:38:27.521Z,-2.00
2018-12-16T02:40:53.651Z,-2.00
2018-12-16T02:43:19.810Z,-2.00
2018-12-16T02:45:46.119Z,-2.10
2018-12-16T02:48:12.314Z,-2.10
2018-12-16T02:50:38.545Z,-2.00
2018-12-16T02:53:04.972Z,-2.20
2018-12-16T02:55:31.293Z,-2.10
2018-12-16T02:57:57.479Z,-2.10
2018-12-16T03:00:23.605Z,-2.20
2018-12-16T03:02:49.769Z,-2.10
2018-12-16T03:05:15.994Z,-2.20
2018-12-16T03:07:42.184Z,-2.10
2018-12-16T03:10:08.415Z,-2.20
2018-12-16T03:12:34.506Z,-2.20
2018-12-16T03:15:00.636Z,-2.30
2018-12-16T03:17:26.776Z,-2.40
2018-12-16T03:19:53.034Z,-2.40
2018-12-16T03:22:19.163Z,-2.30
2018-12-16T03:24:45.343Z,-2.30
2018-12-16T03:27:11.654Z,-2.30
2018-12-16T03:29:37.852Z,-2.40
2018-12-16T03:32:04.086Z,-2.40
2018-12-16T03:34:30.255Z,-2.40
2018-12-16T03:37:03.436Z,-2.40
2018-12-16T03:39:29.567Z,-2.40
2018-12-16T03:41:55.750Z,-2.40
2018-12-16T03:44:21.906Z,-2.40
2018-12-16T03:46:48.096Z,-2.30
2018-12-16T03:49:14.311Z,-2.40
2018-12-16T03:51:40.462Z,-2.40
2018-12-16T03:54:06.639Z,-2.50
2018-12-16T03:56:32.849Z,-2.40
2018-12-16T03:59:20.388Z,-2.40
2018-12-16T04:01:52.956Z,-2.30
2018-12-16T04:04:19.246Z,-2.30
2018-12-16T04:06:52.353Z,-2.10
2018-12-16T04:09:18.537Z,-2.10
2018-12-16T04:11:44.816Z,-2.10
2018-12-16T04:14:10.946Z,-2.10
2018-12-16T04:16:37.094Z,-2.00
2018-12-16T04:19:03.315Z,-2.00
2018-12-16T04:21:29.444Z,-2.00
2018-12-16T04:23:55.773Z,-2.00
2018-12-16T04:26:21.935Z,-2.00
2018-12-16T04:28:48.088Z,-2.00
2018-12-16T04:31:14.178Z,-2.00
2018-12-16T04:33:40.308Z,-2.00
2018-12-16T04:36:06.501Z,-2.00
2018-12-16T04:38:32.724Z,-2.10
2018-12-16T04:40:58.953Z,-2.10
2018-12-16T04:43:25.176Z,-2.10
2018-12-16T04:45:51.368Z,-2.10
2018-12-16T04:48:17.520Z,-2.20
2018-12-16T04:50:43.905Z,-2.20
2018-12-16T04:53:10.065Z,-2.20
2018-12-16T04:55:36.193Z,-2.30
2018-12-16T04:58:02.407Z,-2.20
2018-12-16T05:00:28.583Z,-2.20
2018-12-16T05:02:54.703Z,-2.20
2018-12-16T05:05:20.825Z,-2.20
2018-12-16T05:07:47.862Z,-2.10
2018-12-16T05:10:31.375Z,-2.20
2018-12-16T05:12:57.851Z,-2.20
2018-12-16T05:15:23.987Z,-2.10
2018-12-16T05:17:50.328Z,-2.10
2018-12-16T05:20:23.381Z,-2.10
2018-12-16T05:22:49.566Z,-2.10
2018-12-16T05:25:15.720Z,-2.00
2018-12-16T05:27:41.914Z,-2.00
2018-12-16T05:30:09.485Z,-2.00
2018-12-16T05:32:35.686Z,-2.00
2018-12-16T05:35:02.296Z,-2.00
2018-12-16T05:37:28.460Z,-2.00
2018-12-16T05:39:54.595Z,-2.00
2018-12-16T05:42:20.820Z,-2.00
2018-12-16T05:44:46.988Z,-2.00
2018-12-16T05:47:13.187Z,-1.90
2018-12-16T05:49:39.741Z,-1.90
2018-12-16T05:52:06.055Z,-1.90
2018-12-16T05:54:32.249Z,-1.90
2018-12-16T05:56:58.411Z,-1.90
2018-12-16T05:59:24.566Z,-1.90
2018-12-16T06:01:50.936Z,-1.90
2018-12-16T06:04:17.093Z,-1.90
2018-12-16T06:06:43.252Z,-1.90
2018-12-16T06:09:09.415Z,-1.90
2018-12-16T06:11:35.549Z,-1.90
2018-12-16T06:14:01.717Z,-1.80
2018-12-16T06:16:27.961Z,-1.80
2018-12-16T06:18:54.183Z,-1.80
2018-12-16T06:21:20.362Z,-1.90
2018-12-16T06:23:46.551Z,-1.80
2018-12-16T06:26:12.872Z,-1.80
2018-12-16T06:28:39.083Z,-1.70
2018-12-16T06:31:05.236Z,-1.80
2018-12-16T06:33:31.377Z,-1.70
2018-12-16T06:35:57.569Z,-1.70
2018-12-16T06:38:23.736Z,-1.70
2018-12-16T06:40:49.895Z,-1.70
2018-12-16T06:43:23.228Z,-1.70
2018-12-16T06:45:49.389Z,-1.80
2018-12-16T06:48:15.540Z,-1.80
2018-12-16T06:50:41.706Z,-1.60
2018-12-16T06:53:07.877Z,-1.70
2018-12-16T06:55:34.065Z,-1.60
2018-12-16T06:58:00.212Z,-1.60
2018-12-16T07:00:26.393Z,-1.60
2018-12-16T07:02:59.685Z,-1.50
2018-12-16T07:05:25.893Z,-1.40
2018-12-16T07:07:52.094Z,-1.50
2018-12-16T07:10:18.808Z,-1.50
2018-12-16T07:12:45.130Z,-1.40
2018-12-16T07:15:11.458Z,-1.50
2018-12-16T07:17:37.592Z,-1.40
2018-12-16T07:20:05.271Z,-1.50
2018-12-16T07:22:31.401Z,-1.50
2018-12-16T07:24:57.761Z,-1.50
2018-12-16T07:27:24.005Z,-1.60
2018-12-16T07:29:50.245Z,-1.50
2018-12-16T07:32:16.500Z,-1.50
2018-12-16T07:34:42.686Z,-1.60
2018-12-16T07:37:08.853Z,-1.50
2018-12-16T07:39:35.025Z,-1.50
2018-12-16T07:42:01.314Z,-1.40
2018-12-16T07:44:27.592Z,-1.50
2018-12-16T07:47:05.475Z,-1.60
2018-12-16T07:49:31.769Z,-1.50
2018-12-16T07:51:57.981Z,-1.50
2018-12-16T07:54:24.125Z,-1.40
2018-12-16T07:56:50.594Z,-1.50
2018-12-16T07:59:16.799Z,-1.40
2018-12-16T08:01:42.968Z,-1.40
2018-12-16T08:04:09.151Z,-1.40
2018-12-16T08:06:35.389Z,-1.40
2018-12-16T08:09:01.562Z,-1.30
2018-12-16T08:11:27.717Z,-1.40
2018-12-16T08:13:53.857Z,-1.40
2018-12-16T08:16:20.139Z,-1.30
2018-12-16T08:18:46.240Z,-1.30
2018-12-16T08:21:12.407Z,-1.20
2018-12-16T08:23:38.547Z,-1.10
2018-12-16T08:26:04.764Z,-1.20
2018-12-16T08:28:30.953Z,-1.20
2018-12-16T08:30:57.115Z,-1.10
2018-12-16T08:33:23.299Z,-1.10
2018-12-16T08:35:49.472Z,-1.10
2018-12-16T08:38:15.625Z,-1.00
2018-12-16T08:40:41.791Z,-1.00
2018-12-16T08:43:07.993Z,-0.90
2018-12-16T08:45:34.223Z,-0.90
2018-12-16T08:48:00.416Z,-0.80
2018-12-16T08:50:26.715Z,-0.80
2018-12-16T08:52:52.893Z,-0.80
2018-12-16T08:55:19.057Z,-0.80
2018-12-16T08:57:45.275Z,-0.80
2018-12-16T09:00:11.580Z,-0.90
2018-12-16T09:02:38.016Z,-0.90
2018-12-16T09:05:04.393Z,-0.80
2018-12-16T09:07:37.072Z,-0.80
2018-12-16T09:09:58.717Z,-0.80
2018-12-16T09:12:24.962Z,-0.80
2018-12-16T09:14:51.113Z,-0.80
2018-12-16T09:17:17.403Z,-0.80
2018-12-16T09:19:43.590Z,-0.70
2018-12-16T09:22:09.745Z,-0.70
2018-12-16T09:24:37.338Z,-0.70
2018-12-16T09:27:04.035Z,-0.70
2018-12-16T09:29:30.216Z,-0.70
2018-12-16T09:31:56.341Z,-0.80
2018-12-16T09:34:22.495Z,-0.80
2018-12-16T09:36:48.722Z,-0.70
2018-12-16T09:39:14.838Z,-0.90
2018-12-16T09:41:40.985Z,-0.90
2018-12-16T09:44:07.125Z,-0.90
2018-12-16T09:46:33.293Z,-0.90
2018-12-16T09:48:59.486Z,-0.80
2018-12-16T09:51:25.602Z,-0.90
2018-12-16T09:53:58.776Z,-1.00
2018-12-16T09:56:24.937Z,-1.00
2018-12-16T09:58:51.217Z,-1.00
2018-12-16T10:01:17.350Z,-1.10
2018-12-16T10:03:43.509Z,-0.90
2018-12-16T10:06:09.934Z,-1.00
2018-12-16T10:08:36.062Z,-1.00
2018-12-16T10:11:02.346Z,-1.00
2018-12-16T10:13:28.553Z,-1.10
2018-12-16T10:15:54.785Z,-1.20
2018-12-16T10:18:20.985Z,-1.00
2018-12-16T10:20:47.168Z,-1.00
2018-12-16T10:23:13.398Z,-1.10
2018-12-16T10:25:39.590Z,-1.00
2018-12-16T10:28:06.414Z,-1.10
2018-12-16T10:30:32.572Z,-1.10
2018-12-16T10:32:58.715Z,-1.10
2018-12-16T10:35:24.911Z,-1.10
2018-12-16T10:37:51.104Z,-1.00
2018-12-16T10:40:17.306Z,-1.00
2018-12-16T10:42:43.466Z,-1.10
2018-12-16T10:45:09.605Z,-1.00
2018-12-16T10:47:35.790Z,-0.90
2018-12-16T10:50:04.097Z,-0.90
2018-12-16T10:52:30.277Z,-0.80
2018-12-16T10:54:58.489Z,-0.70
2018-12-16T10:57:31.619Z,-0.80
2018-12-16T10:59:57.842Z,-0.70
2018-12-16T11:02:24.040Z,-0.70
2018-12-16T11:04:50.260Z,-0.80
2018-12-16T11:07:16.452Z,-0.80
2018-12-16T11:09:42.619Z,-0.70
2018-12-16T11:12:08.924Z,-0.80
2018-12-16T11:14:35.080Z,-0.70
2018-12-16T11:17:01.293Z,-0.80
2018-12-16T11:19:27.438Z,-0.80
2018-12-16T11:21:53.566Z,-0.80
2018-12-16T11:24:19.704Z,-0.80
2018-12-16T11:26:45.944Z,-0.60
2018-12-16T11:29:12.171Z,-0.60
2018-12-16T11:31:38.583Z,-0.60
2018-12-16T11:34:04.747Z,-0.70
2018-12-16T11:36:31.803Z,-0.70
2018-12-16T11:38:58.016Z,-0.60
2018-12-16T11:41:24.166Z,-0.50
2018-12-16T11:43:57.466Z,-0.40
2018-12-16T11:46:23.617Z,-0.40
2018-12-16T11:48:49.794Z,-0.50
2018-12-16T11:51:16.003Z,-0.60
2018-12-16T11:53:48.991Z,-0.60
2018-12-16T11:56:15.134Z,-0.60
2018-12-16T11:58:41.271Z,-0.60
2018-12-16T12:01:07.475Z,-0.50
2018-12-16T12:03:33.744Z,-0.50
2018-12-16T12:05:59.879Z,-0.50
2018-12-16T12:08:26.091Z,-0.50
2018-12-16T12:10:52.224Z,-0.40
2018-12-16T12:13:18.434Z,-0.40
2018-12-16T12:15:45.073Z,-0.50
2018-12-16T12:18:11.215Z,-0.40
2018-12-16T12:20:37.501Z,-0.50
2018-12-16T12:23:03.827Z,-0.60
2018-12-16T12:25:31.457Z,-0.60
2018-12-16T12:27:57.891Z,-0.50
2018-12-16T12:30:24.187Z,-0.60
2018-12-16T12:32:50.419Z,-0.60
2018-12-16T12:35:16.608Z,-0.50
2018-12-16T12:37:42.755Z,-0.40
2018-12-16T12:40:09.038Z,-0.40
2018-12-16T12:42:35.171Z,-0.30
2018-12-16T12:45:01.463Z,-0.30
2018-12-16T12:47:27.673Z,-0.30
2018-12-16T12:49:53.870Z,-0.30
2018-12-16T12:52:20.030Z,-0.20
2018-12-16T12:54:46.233Z,-0.10
2018-12-16T12:57:12.328Z,-0.10
2018-12-16T12:59:38.491Z,0.00
2018-12-16T13:02:11.705Z,-0.10
2018-12-16T13:04:37.862Z,-0.10
2018-12-16T13:07:04.129Z,-0.10
2018-12-16T13:09:30.357Z,-0.10
2018-12-16T13:11:57.164Z,-0.10
2018-12-16T13:14:23.506Z,-0.20
2018-12-16T13:16:49.698Z,-0.10
2018-12-16T13:19:15.840Z,-0.30
2018-12-16T13:21:42.110Z,-0.30
2018-12-16T13:24:08.351Z,-0.30
2018-12-16T13:26:34.668Z,-0.30
2018-12-16T13:29:00.816Z,-0.30
2018-12-16T13:31:27.045Z,-0.30
2018-12-16T13:33:53.247Z,-0.20
2018-12-16T13:36:19.444Z,-0.20
2018-12-16T13:38:45.666Z,-0.20
2018-12-16T13:41:11.994Z,-0.10
2018-12-16T13:43:38.247Z,-0.10
2018-12-16T13:46:04.385Z,-0.10
2018-12-16T13:48:30.538Z,-0.10
2018-12-16T13:50:56.678Z,-0.10
2018-12-16T13:53:22.868Z,0.00
2018-12-16T13:55:49.172Z,-0.10
2018-12-16T13:58:15.285Z,-0.10
2018-12-16T14:00:41.451Z,-0.10
2018-12-16T14:03:07.585Z,-0.10
2018-12-16T14:05:33.869Z,-0.10
2018-12-16T14:08:00.137Z,-0.10
2018-12-16T14:10:26.374Z,-0.10
2018-12-16T14:12:52.487Z,0.00
2018-12-16T14:15:18.646Z,0.00
2018-12-16T14:17:51.996Z,0.00
2018-12-16T14:20:18.233Z,0.10
2018-12-16T14:22:44.383Z,0.00
2018-12-16T14:25:10.635Z,0.00
2018-12-16T14:27:36.819Z,0.00
2018-12-16T14:30:05.584Z,0.00
2018-12-16T14:32:31.833Z,0.00
2018-12-16T14:34:58.013Z,0.10
2018-12-16T14:37:24.190Z,0.10
2018-12-16T14:39:50.332Z,0.10
2018-12-16T14:42:16.504Z,0.10
2018-12-16T14:44:42.677Z,0.10
2018-12-16T14:47:08.859Z,0.10
2018-12-16T14:49:35.028Z,0.20
2018-12-16T14:52:01.246Z,0.10
2018-12-16T14:54:27.379Z,0.10
2018-12-16T14:56:53.564Z,0.10
2018-12-16T14:59:19.693Z,0.20
2018-12-16T15:01:45.799Z,0.20
2018-12-16T15:04:11.962Z,0.30
2018-12-16T15:06:38.080Z,0.30
2018-12-16T15:09:05.375Z,0.30
2018-12-16T15:11:31.555Z,0.30
2018-12-16T15:13:57.714Z,0.30
2018-12-16T15:16:23.900Z,0.30
2018-12-16T15:18:50.281Z,0.30
2018-12-16T15:21:17.243Z,0.30
2018-12-16T15:23:43.680Z,0.30
2018-12-16T15:26:10.072Z,0.40
2018-12-16T15:28:36.272Z,0.30
2018-12-16T15:31:09.393Z,0.30
2018-12-16T15:33:35.554Z,0.30
2018-12-16T15:36:01.779Z,0.30
2018-12-16T15:38:27.910Z,0.30
2018-12-16T15:40:54.200Z,0.30
2018-12-16T15:43:20.426Z,0.30
2018-12-16T15:45:46.639Z,0.30
2018-12-16T15:48:12.758Z,0.30
2018-12-16T15:50:38.887Z,0.30
2018-12-16T15:53:05.011Z,0.30
2018-12-16T15:55:31.182Z,0.30
2018-12-16T15:57:57.518Z,0.30
2018-12-16T16:00:24.824Z,0.40
2018-12-16T16:02:51.009Z,0.40
2018-12-16T16:05:17.169Z,0.50
2018-12-16T16:07:43.342Z,0.50
2018-12-16T16:10:09.615Z,0.50
2018-12-16T16:12:35.805Z,0.40
2018-12-16T16:15:02.190Z,0.50
2018-12-16T16:17:28.370Z,0.50
2018-12-16T16:20:01.602Z,0.50
2018-12-16T16:22:27.758Z,0.50
2018-12-16T16:24:53.983Z,0.50
2018-12-16T16:27:20.148Z,0.50
2018-12-16T16:29:46.353Z,0.50
2018-12-16T16:32:12.512Z,0.50
2018-12-16T16:34:38.665Z,0.50
2018-12-16T16:37:04.896Z,0.60
2018-12-16T16:39:31.061Z,0.50
2018-12-16T16:41:57.257Z,0.50
2018-12-16T16:44:23.463Z,0.60
2018-12-16T16:46:56.483Z,0.50
2018-12-16T16:49:22.723Z,0.60
2018-12-16T16:51:48.914Z,0.60
2018-12-16T16:54:15.081Z,0.60
2018-12-16T16:56:41.449Z,0.60
2018-12-16T16:59:07.653Z,0.60
2018-12-16T17:01:33.859Z,0.60
2018-12-16T17:04:00.044Z,0.60
2018-12-16T17:06:26.224Z,0.60
2018-12-16T17:08:52.358Z,0.60
2018-12-16T17:11:19.176Z,0.70
2018-12-16T17:13:45.536Z,0.60
2018-12-16T17:16:12.358Z,0.70
2018-12-16T17:18:38.680Z,0.70
2018-12-16T17:21:05.012Z,0.60
2018-12-16T17:23:31.140Z,0.70
2018-12-16T17:25:57.330Z,0.80
2018-12-16T17:28:23.480Z,0.80
2018-12-16T17:30:49.622Z,0.70
2018-12-16T17:33:15.823Z,0.70
2018-12-16T17:35:42.048Z,0.70
2018-12-16T17:38:08.258Z,0.70
2018-12-16T17:40:34.556Z,0.70
2018-12-16T17:43:00.760Z,0.80
2018-12-16T17:45:26.984Z,0.70
2018-12-16T17:47:53.122Z,0.70
2018-12-16T17:50:19.554Z,0.70
2018-12-16T17:52:45.745Z,0.80
2018-12-16T17:55:12.029Z,0.70
2018-12-16T17:57:38.259Z,0.80
2018-12-16T18:00:06.858Z,0.70
2018-12-16T18:02:33.519Z,0.70
2018-12-16T18:04:59.675Z,0.70
2018-12-16T18:07:25.983Z,0.80
2018-12-16T18:09:52.360Z,0.70
2018-12-16T18:12:25.635Z,0.80
2018-12-16T18:14:51.990Z,0.80
2018-12-16T18:17:18.288Z,0.80
2018-12-16T18:19:44.752Z,0.80
2018-12-16T18:22:13.960Z,0.80
2018-12-16T18:24:39.298Z,0.80
2018-12-16T18:27:05.453Z,0.80
2018-12-16T18:29:31.689Z,0.80
2018-12-16T18:31:57.913Z,0.80
2018-12-16T18:34:24.089Z,0.80
2018-12-16T18:36:50.532Z,0.90
2018-12-16T18:39:16.836Z,0.90
2018-12-16T18:41:43.649Z,0.80
2018-12-16T18:44:10.070Z,0.90
2018-12-16T18:46:36.348Z,0.90
2018-12-16T18:49:02.657Z,0.80
2018-12-16T18:51:28.972Z,0.80
2018-12-16T18:53:55.131Z,0.90
2018-12-16T18:56:21.396Z,0.90
2018-12-16T18:58:47.610Z,0.90
2018-12-16T19:01:20.883Z,0.90
2018-12-16T19:03:47.150Z,0.90
2018-12-16T19:06:13.373Z,0.90
2018-12-16T19:08:40.151Z,0.90
2018-12-16T19:11:06.452Z,0.90
2018-12-16T19:13:32.651Z,0.90
2018-12-16T19:15:58.930Z,0.90
2018-12-16T19:18:26.425Z,0.90
2018-12-16T19:20:52.591Z,0.90
2018-12-16T19:23:19.296Z,0.90
2018-12-16T19:25:45.447Z,0.90
2018-12-16T19:28:12.200Z,0.90
2018-12-16T19:30:38.631Z,0.90
2018-12-16T19:33:05.125Z,1.00
2018-12-16T19:35:31.352Z,1.00
2018-12-16T19:37:57.512Z,1.10
2018-12-16T19:40:23.867Z,1.10
2018-12-16T19:42:50.109Z,1.10
2018-12-16T19:45:16.285Z,1.20
2018-12-16T19:47:49.405Z,1.10
2018-12-16T19:50:10.938Z,1.10
2018-12-16T19:52:37.240Z,1.10
2018-12-16T19:55:05.437Z,1.10
2018-12-16T19:57:31.680Z,1.10
2018-12-16T19:59:57.895Z,1.10
2018-12-16T20:02:24.175Z,1.10
2018-12-16T20:04:52.431Z,1.10
2018-12-16T20:07:18.650Z,1.10
2018-12-16T20:09:45.460Z,1.10
2018-12-16T20:12:11.849Z,1.20
2018-12-16T20:14:38.168Z,1.20
2018-12-16T20:17:04.460Z,1.20
2018-12-16T20:19:30.879Z,1.20
2018-12-16T20:21:57.090Z,1.10
2018-12-16T20:24:23.312Z,1.10
2018-12-16T20:26:49.498Z,1.20
2018-12-16T20:29:15.670Z,1.20
2018-12-16T20:31:41.923Z,1.20
2018-12-16T20:34:08.123Z,1.20
2018-12-16T20:36:35.966Z,1.20
2018-12-16T20:39:10.459Z,1.20
2018-12-16T20:41:37.429Z,1.10
2018-12-16T20:44:03.813Z,1.10
2018-12-16T20:46:30.021Z,1.20
2018-12-16T20:49:03.334Z,1.20
2018-12-16T20:51:29.491Z,1.20
2018-12-16T20:53:55.691Z,1.30
2018-12-16T20:56:21.889Z,1.30
2018-12-16T20:58:48.046Z,1.30
2018-12-16T21:01:14.280Z,1.30
2018-12-16T21:03:40.437Z,1.30
2018-12-16T21:06:06.739Z,1.30
2018-12-16T21:08:33.008Z,1.30
2018-12-16T21:11:01.359Z,1.30
2018-12-16T21:13:33.715Z,1.30
2018-12-16T21:16:05.840Z,1.30
2018-12-16T21:18:32.887Z,1.30
2018-12-16T21:20:59.116Z,1.30
2018-12-16T21:23:25.293Z,1.40
2018-12-16T21:25:51.520Z,1.40
2018-12-16T21:28:24.724Z,1.30
2018-12-16T21:30:50.915Z,1.30
2018-12-16T21:33:17.135Z,1.30
2018-12-16T21:35:43.388Z,1.30
2018-12-16T21:38:09.605Z,1.30
2018-12-16T21:40:35.832Z,1.30
2018-12-16T21:43:02.046Z,1.30
2018-12-16T21:45:28.205Z,1.40
2018-12-16T21:47:54.411Z,1.40
2018-12-16T21:50:20.665Z,1.30
2018-12-16T21:52:46.785Z,1.30
2018-12-16T21:55:12.958Z,1.30
2018-12-16T21:57:39.096Z,1.30
2018-12-16T22:00:07.192Z,1.40
2018-12-16T22:02:33.588Z,1.40
2018-12-16T22:04:59.750Z,1.40
2018-12-16T22:07:25.880Z,1.50
2018-12-16T22:09:52.012Z,1.50
2018-12-16T22:12:18.167Z,1.50
2018-12-16T22:14:51.280Z,1.40
2018-12-16T22:17:17.486Z,1.50
2018-12-16T22:19:43.636Z,1.40
2018-12-16T22:22:09.900Z,1.40
2018-12-16T22:24:36.054Z,1.40
2018-12-16T22:27:02.262Z,1.40
2018-12-16T22:29:28.416Z,1.40
2018-12-16T22:31:54.596Z,1.50
2018-12-16T22:34:20.758Z,1.50
2018-12-16T22:36:46.919Z,1.40
2018-12-16T22:39:13.089Z,1.40
2018-12-16T22:41:39.226Z,1.50
2018-12-16T22:44:05.618Z,1.40
2018-12-16T22:46:32.149Z,1.40
2018-12-16T22:48:58.328Z,1.50
2018-12-16T22:51:24.502Z,1.50
2018-12-16T22:53:50.693Z,1.40
2018-12-16T22:56:16.968Z,1.50
2018-12-16T22:58:43.285Z,1.50
2018-12-16T23:01:16.369Z,1.50
2018-12-16T23:03:42.577Z,1.50
2018-12-16T23:06:08.739Z,1.60
2018-12-16T23:08:34.863Z,1.50
2018-12-16T23:11:01.283Z,1.50
2018-12-16T23:13:27.463Z,1.50
2018-12-16T23:15:53.670Z,1.50
2018-12-16T23:18:19.819Z,1.60
2018-12-16T23:20:45.961Z,1.60
2018-12-16T23:23:12.190Z,1.60
2018-12-16T23:25:38.311Z,1.60
2018-12-16T23:28:04.530Z,1.60
2018-12-16T23:30:30.695Z,1.60
2018-12-16T23:32:56.925Z,1.50
2018-12-16T23:35:23.251Z,1.60
2018-12-16T23:37:49.425Z,1.50
2018-12-16T23:40:15.652Z,1.50
2018-12-16T23:42:41.817Z,1.60
2018-12-16T23:45:08.727Z,1.60
2018-12-16T23:47:41.914Z,1.60
2018-12-16T23:50:08.876Z,1.60
2018-12-16T23:52:35.178Z,1.60
2018-12-16T23:55:01.328Z,1.60
2018-12-16T23:57:27.478Z,1.60
2018-12-16T23:59:53.982Z,1.60
